CST,Max TemperatureF,Mean TemperatureF,Min TemperatureF,Max Dew PointF,MeanDew PointF,Min DewpointF,Max Humidity, Mean Humidity, Min Humidity, Max Sea Level PressureIn, Mean Sea Level PressureIn, Min Sea Level PressureIn, Max VisibilityMiles, Mean VisibilityMiles, Min VisibilityMiles, Max Wind SpeedMPH, Mean Wind SpeedMPH, Max Gust SpeedMPH,PrecipitationIn, CloudCover, Events, WindDirDegrees
2013-1-1,32,15,-2,18,8,-6,93,83,78,30.24,30.10,29.95,10,10,10,13,4,18,0.00,7,Snow,183
2013-1-2,30,19,8,25,14,3,93,78,64,30.21,29.98,29.87,10,10,5,17,7,24,0.00,6,Snow,299
2013-1-3,24,14,3,16,8,0,85,76,68,30.29,30.20,30.02,10,9,3,15,9,21,0.00,2,Snow,278
2013-1-4,30,18,6,18,12,3,92,69,55,30.10,30.05,30.00,10,10,7,15,6,20,0.00,0,,289
2013-1-5,21,11,1,12,6,-2,92,80,62,30.13,29.98,29.90,10,9,0,22,5,31,0.00,2,Fog-Snow,323
2013-1-6,24,12,8,18,9,5,92,80,68,30.19,30.08,29.80,10,10,10,16,7,18,0.00,1,,174
2013-1-7,37,30,23,25,20,18,80,66,56,29.94,29.87,29.79,10,10,10,13,6,17,0.00,1,,262
2013-1-8,37,26,15,27,20,12,93,79,65,29.92,29.80,29.67,10,10,10,17,7,18,0.00,1,,179
2013-1-9,35,29,23,27,20,18,86,71,60,30.26,30.14,29.91,10,10,10,22,13,31,0.00,0,,212
2013-1-10,41,32,24,30,27,21,93,72,52,30.09,29.90,29.54,10,8,1,23,13,30,0.26,3,Rain,157
2013-1-11,33,24,14,32,28,10,100,90,79,29.55,29.44,29.35,10,2,0,21,9,26,0.01,8,Fog-Rain-Snow,149
2013-1-12,14,8,3,10,0,-4,86,76,66,30.11,29.89,29.49,10,6,1,21,16,28,0.00,7,Snow,330
2013-1-13,12,6,0,5,-2,-8,85,72,62,30.23,30.15,30.10,10,10,3,17,11,23,0.00,3,Snow,330
2013-1-14,10,3,-4,3,-2,-9,85,75,62,30.38,30.28,30.21,10,10,10,12,6,,0.00,2,,330
2013-1-15,26,16,6,18,6,1,85,67,50,30.21,30.01,29.69,10,10,5,13,6,18,0.00,4,Snow,254
2013-1-16,37,18,0,30,12,-11,93,73,52,30.28,29.92,29.62,10,8,1,24,12,31,0.00,5,Snow,327
2013-1-17,24,12,0,16,3,-13,74,68,51,30.37,30.32,30.13,10,10,0,15,6,21,0.00,5,,259
2013-1-18,39,27,15,28,22,9,93,77,60,30.11,29.81,29.72,10,10,10,16,9,21,0.00,1,,213
2013-1-19,37,18,0,28,14,-9,93,73,62,30.33,29.96,29.69,10,10,3,32,12,46,0.00,4,Snow,303
2013-1-20,8,0,-9,0,-7,-20,78,68,54,30.41,30.35,30.32,10,9,2,21,11,30,0.00,4,Snow,315
2013-1-21,1,-5,-11,-9,-15,-20,77,64,55,30.37,30.32,30.27,10,10,10,17,12,26,0.00,0,,304
2013-1-22,6,-2,-9,0,-9,-17,78,70,56,30.34,30.27,30.16,10,10,7,8,2,,0.00,3,Snow,153
2013-1-23,6,-2,-11,3,-7,-20,85,72,59,30.62,30.34,30.13,10,8,2,26,10,32,0.00,2,Snow,341
2013-1-24,12,0,-11,3,-8,-20,73,67,62,30.63,30.36,30.04,10,10,10,22,9,30,0.00,2,,149
2013-1-25,21,10,-2,14,-2,-8,79,66,56,30.30,30.13,29.95,10,10,10,26,11,34,0.00,2,Snow,322
2013-1-26,17,6,-4,10,1,-9,79,74,67,30.30,30.13,29.96,10,10,10,18,7,24,0.00,1,,132
2013-1-27,30,21,12,28,19,7,93,85,69,29.96,29.82,29.75,10,7,0,10,5,,0.00,4,Fog,117
2013-1-28,32,30,28,30,28,27,100,91,80,29.83,29.77,29.66,10,5,0,13,3,,0.01,7,Fog,346
2013-1-29,26,22,15,25,20,12,93,87,79,29.87,29.73,29.61,10,4,1,23,13,30,0.03,7,Snow,336
2013-1-30,15,5,-5,10,1,-13,86,77,71,29.89,29.85,29.82,10,7,2,23,18,29,0.00,7,Snow,328
2013-1-31,-5,-9,-13,-13,-18,-20,71,68,59,30.31,30.16,29.90,10,8,1,24,17,32,0.00,5,Snow,310